Time;durP1;ratioP1;P1;durP2;ratioP2;P2;SDS_P1;SDS_P2;PMS_P1;PMS_P2;Temp;Humidity;BMP_temperature;BMP_pressure;BME280_temperature;BME280_humidity;BME280_pressure;Samples;Min_cycle;Max_cycle;Signal;HPM_P1;HPM_P2
2022/07/07 00:01:59;;;;;;;;;2.00;2.00;;;;;24.03;42.09;102023.25;4917749;28;45382;-54
2022/07/07 00:04:24;;;;;;;;;2.00;1.00;;;;;24.02;41.98;102026.84;4918156;28;45615;-47
2022/07/07 00:06:50;;;;;;;;;1.00;1.00;;;;;24.00;42.21;102024.25;4917859;28;45447;-51
2022/07/07 00:09:16;;;;;;;;;1.25;1.00;;;;;24.01;41.99;102022.47;4918103;28;45535;-49
2022/07/07 00:11:41;;;;;;;;;1.50;1.50;;;;;24.01;41.91;102023.31;4918155;28;45343;-48
2022/07/07 00:14:08;;;;;;;;;2.00;2.00;;;;;24.00;41.75;102023.41;4918179;28;45343;-50
2022/07/07 00:16:35;;;;;;;;;1.25;1.25;;;;;24.00;41.92;102015.47;4918004;28;45471;-46
2022/07/07 00:19:01;;;;;;;;;2.00;2.00;;;;;23.99;41.74;102014.59;4917884;28;45605;-46
2022/07/07 00:21:27;;;;;;;;;2.00;2.00;;;;;23.99;42.21;102021.69;4917798;28;47032;-48
2022/07/07 00:23:52;;;;;;;;;0.50;0.50;;;;;23.98;42.27;102018.16;4917470;28;45237;-48
2022/07/07 00:26:17;;;;;;;;;2.00;2.00;;;;;23.99;42.12;102008.44;4917784;28;45334;-50
2022/07/07 00:28:43;;;;;;;;;2.00;2.00;;;;;23.98;42.28;102010.22;4917635;28;45502;-44
2022/07/07 00:31:08;;;;;;;;;2.00;2.00;;;;;23.97;41.88;102012.97;4917552;28;55108;-47
2022/07/07 00:33:33;;;;;;;;;2.00;2.00;;;;;23.96;41.99;102009.47;4917693;28;45327;-46
2022/07/07 00:35:59;;;;;;;;;2.00;2.00;;;;;23.96;41.86;102014.75;4917273;28;50097;-49
2022/07/07 00:38:24;;;;;;;;;1.25;1.25;;;;;23.97;42.04;102005.00;4917740;28;45384;-44
2022/07/07 00:40:51;;;;;;;;;1.00;1.00;;;;;23.96;42.27;102008.59;4917319;28;46788;-49
2022/07/07 00:43:16;;;;;;;;;1.00;1.00;;;;;23.96;42.13;101993.56;4919478;28;45929;-43
2022/07/07 00:45:46;;;;;;;;;1.00;1.00;;;;;23.97;42.48;101994.41;4920885;28;45609;-48
2022/07/07 00:48:11;;;;;;;;;2.00;2.00;;;;;23.96;42.42;101993.56;4920991;28;45524;-48
2022/07/07 00:50:37;;;;;;;;;1.75;1.75;;;;;23.95;42.47;101997.16;4920880;28;45296;-45
2022/07/07 00:53:02;;;;;;;;;1.75;1.75;;;;;23.95;42.20;101989.22;4920338;28;45383;-48
2022/07/07 00:55:27;;;;;;;;;1.25;1.25;;;;;23.95;42.35;101983.91;4920764;28;45341;-47
2022/07/07 00:57:53;;;;;;;;;1.00;1.00;;;;;23.94;42.34;101979.53;4920600;28;45624;-51
2022/07/07 01:00:18;;;;;;;;;1.00;1.00;;;;;23.93;42.23;101980.47;4920364;28;46076;-48
2022/07/07 01:02:43;;;;;;;;;1.75;1.75;;;;;23.91;42.61;101983.19;4919942;28;54601;-45
2022/07/07 01:05:10;;;;;;;;;3.00;2.00;;;;;23.93;42.01;101975.16;4920889;28;45271;-48
2022/07/07 01:07:36;;;;;;;;;0.00;0.00;;;;;23.91;42.38;101966.44;4920666;28;45288;-48
2022/07/07 01:10:04;;;;;;;;;2.00;2.00;;;;;23.91;41.88;101963.78;4920027;28;45990;-48
2022/07/07 01:12:34;;;;;;;;;2.50;2.50;;;;;23.90;42.42;101967.38;4920425;28;45782;-46
2022/07/07 01:15:00;;;;;;;;;1.00;1.00;;;;;23.89;42.27;101963.00;4920205;28;45404;-44
2022/07/07 01:17:25;;;;;;;;;2.25;2.00;;;;;23.90;42.32;101962.06;4920645;28;45385;-49
2022/07/07 01:19:50;;;;;;;;;2.00;2.00;;;;;23.89;42.27;101955.06;4919802;28;46131;-53
2022/07/07 01:22:17;;;;;;;;;2.00;2.00;;;;;23.88;42.37;101959.50;4920166;28;45391;-52
2022/07/07 01:24:43;;;;;;;;;1.25;1.25;;;;;23.87;42.31;101962.22;4920143;28;45298;-48
2022/07/07 01:27:20;;;;;;;;;2.25;2.25;;;;;23.86;42.88;101961.38;4920820;28;45257;-45
2022/07/07 01:29:50;;;;;;;;;2.00;2.00;;;;;23.87;42.59;101962.22;4919826;28;46019;-48
2022/07/07 01:32:16;;;;;;;;;2.00;2.00;;;;;23.86;42.77;101960.53;4920040;28;45847;-45
2022/07/07 01:34:45;;;;;;;;;1.00;1.00;;;;;23.85;42.26;101958.81;4920098;28;45409;-48
2022/07/07 01:37:11;;;;;;;;;2.25;2.25;;;;;23.84;42.29;101954.47;4903444;28;45642;-46
2022/07/07 01:39:39;;;;;;;;;3.00;2.00;;;;;23.84;42.86;101954.47;4920086;28;46374;-45
2022/07/07 01:42:05;;;;;;;;;2.75;2.75;;;;;23.84;42.48;101949.16;4919707;28;45292;-46
2022/07/07 01:44:32;;;;;;;;;2.00;2.00;;;;;23.83;42.45;101953.59;4919857;28;45435;-47
2022/07/07 01:46:57;;;;;;;;;1.25;1.25;;;;;23.83;42.41;101950.09;4919908;28;45448;-43
2022/07/07 01:49:23;;;;;;;;;2.25;2.25;;;;;23.82;42.85;101941.28;4919722;28;45348;-45
2022/07/07 01:51:49;;;;;;;;;1.00;1.00;;;;;23.83;42.55;101950.09;4919649;28;45798;-45
2022/07/07 01:54:14;;;;;;;;;1.33;1.33;;;;;23.83;42.92;101950.09;4918640;28;56261;-53
2022/07/07 01:56:39;;;;;;;;;2.00;2.00;;;;;23.82;42.74;101948.38;4920324;28;45231;-55
2022/07/07 01:59:05;;;;;;;;;2.00;2.00;;;;;23.81;42.85;101947.53;4919271;28;45379;-54
2022/07/07 02:01:30;;;;;;;;;1.00;1.00;;;;;23.81;42.73;101941.38;4919677;28;45216;-52
2022/07/07 02:03:55;;;;;;;;;2.25;2.00;;;;;23.78;42.81;101937.94;4919417;28;45232;-53
2022/07/07 02:06:21;;;;;;;;;2.00;2.00;;;;;23.78;42.54;101934.47;4919860;28;45689;-54
2022/07/07 02:08:46;;;;;;;;;3.00;1.50;;;;;23.77;42.94;101938.88;4918936;28;55292;-52
2022/07/07 02:11:14;;;;;;;;;3.75;2.00;;;;;23.75;42.79;101940.78;4919370;28;54582;-45
2022/07/07 02:13:42;;;;;;;;;2.00;2.00;;;;;23.76;42.84;101933.69;4920023;28;45407;-54
2022/07/07 02:16:08;;;;;;;;;1.75;1.75;;;;;23.74;42.83;101925.81;4920123;28;45406;-54
2022/07/07 02:18:36;;;;;;;;;2.00;2.00;;;;;23.74;42.70;101915.25;4919238;28;45387;-46
2022/07/07 02:21:02;;;;;;;;;1.00;1.00;;;;;23.75;42.87;101918.72;4917985;28;45801;-45
2022/07/07 02:23:28;;;;;;;;;3.00;1.50;;;;;23.74;42.27;101920.53;4919414;28;45459;-49
2022/07/07 02:25:53;;;;;;;;;1.00;1.00;;;;;23.76;42.99;101923.94;4919321;28;45370;-48
2022/07/07 02:28:23;;;;;;;;;2.00;2.00;;;;;23.75;42.65;101921.38;4919158;28;47224;-44
2022/07/07 02:30:49;;;;;;;;;1.50;1.50;;;;;23.73;43.09;101918.81;4901731;28;45776;-44
2022/07/07 02:33:14;;;;;;;;;2.00;2.00;;;;;23.73;42.57;101924.13;4919321;28;45332;-48
2022/07/07 02:35:39;;;;;;;;;2.00;2.00;;;;;23.72;42.84;101925.03;4919635;28;45491;-49
2022/07/07 02:38:05;;;;;;;;;2.00;2.00;;;;;23.71;43.15;101920.69;4918693;28;47804;-47
2022/07/07 02:40:31;;;;;;;;;3.50;3.00;;;;;23.70;42.97;101921.63;4918997;28;45249;-49
2022/07/07 02:42:56;;;;;;;;;2.00;2.00;;;;;23.69;42.78;101922.53;4918942;28;45709;-47
2022/07/07 02:45:21;;;;;;;;;3.00;1.00;;;;;23.70;43.16;101923.41;4918967;28;45237;-44
2022/07/07 02:47:47;;;;;;;;;1.25;1.25;;;;;23.71;42.68;101917.16;4918719;28;45909;-46
2022/07/07 02:50:12;;;;;;;;;1.00;1.00;;;;;23.68;42.82;101920.84;4901785;28;45824;-44
2022/07/07 02:52:37;;;;;;;;;1.25;1.25;;;;;23.68;42.97;101920.84;4919381;28;45348;-45
2022/07/07 02:55:03;;;;;;;;;2.00;2.00;;;;;23.68;42.78;101925.28;4918893;28;45202;-47
2022/07/07 02:57:28;;;;;;;;;3.00;3.00;;;;;23.66;42.81;101917.41;4918722;28;46208;-47
2022/07/07 02:59:53;;;;;;;;;1.25;1.25;;;;;23.66;42.70;101913.91;4918499;28;45339;-51
2022/07/07 03:02:19;;;;;;;;;2.00;2.00;;;;;23.65;42.80;101926.28;4917780;28;50354;-50
2022/07/07 03:04:44;;;;;;;;;1.00;1.00;;;;;23.63;42.93;101913.13;4918712;28;45248;-47
2022/07/07 03:07:09;;;;;;;;;3.00;3.00;;;;;23.61;43.31;101915.00;4918806;28;45237;-47
2022/07/07 03:09:34;;;;;;;;;1.00;1.00;;;;;23.62;42.88;101918.53;4918299;28;45820;-46
2022/07/07 03:12:00;;;;;;;;;3.00;1.50;;;;;23.61;43.05;101914.16;4918761;28;45416;-46
2022/07/07 03:14:25;;;;;;;;;3.00;2.00;;;;;23.60;43.43;101918.56;4918664;28;45551;-46
2022/07/07 03:16:50;;;;;;;;;2.50;2.00;;;;;23.60;43.43;101917.75;4918401;28;46451;-51
2022/07/07 03:19:16;;;;;;;;;4.75;2.00;;;;;23.59;42.99;101916.03;4918427;28;45486;-51
2022/07/07 03:21:41;;;;;;;;;3.00;1.50;;;;;23.58;43.41;101912.53;4918688;28;45466;-47
2022/07/07 03:24:07;;;;;;;;;9.25;9.25;;;;;23.58;43.51;101920.47;4918905;28;45301;-52
2022/07/07 03:26:33;;;;;;;;;216.67;199.67;;;;;23.61;43.69;101907.06;4917832;28;45799;-45
2022/07/07 03:28:58;;;;;;;;;1010.40;843.80;;;;;23.66;43.45;101916.56;4917110;28;45460;-46
2022/07/07 03:31:23;;;;;;;;;1042.40;889.20;;;;;23.67;43.30;101913.81;4917376;28;45677;-47
2022/07/07 03:33:49;;;;;;;;;818.50;724.50;;;;;23.66;43.51;101909.47;4917413;28;45442;-48
2022/07/07 03:36:14;;;;;;;;;686.80;616.40;;;;;23.65;43.67;101910.41;4917379;28;45274;-46
2022/07/07 03:38:39;;;;;;;;;544.80;484.40;;;;;23.63;43.39;101907.84;4917474;28;45467;-50
2022/07/07 03:41:05;;;;;;;;;437.60;401.00;;;;;23.62;43.65;101911.41;4917726;28;45251;-54
2022/07/07 03:43:30;;;;;;;;;333.00;309.75;;;;;23.62;43.43;101916.72;4917897;28;45533;-47
2022/07/07 03:45:56;;;;;;;;;242.75;225.75;;;;;23.59;43.12;101910.72;4917912;28;46078;-46
2022/07/07 03:48:21;;;;;;;;;196.67;184.00;;;;;23.58;43.78;101909.00;4918058;28;45347;-53
2022/07/07 03:50:47;;;;;;;;;144.75;130.00;;;;;23.57;43.26;101912.59;4917945;28;45305;-55
2022/07/07 03:53:12;;;;;;;;;142.00;127.25;;;;;23.55;43.80;101907.38;4918761;28;45435;-47
2022/07/07 03:55:37;;;;;;;;;85.00;76.00;;;;;23.55;43.77;101898.56;4918002;28;45972;-44
2022/07/07 03:58:03;;;;;;;;;52.00;44.25;;;;;23.55;43.88;101895.94;4917999;28;45266;-48
2022/07/07 04:00:29;;;;;;;;;32.00;30.25;;;;;23.53;43.90;101897.81;4917637;28;45249;-48
2022/07/07 04:02:55;;;;;;;;;18.00;17.50;;;;;23.50;43.82;101903.28;4918147;28;45509;-47
2022/07/07 04:05:20;;;;;;;;;12.50;11.50;;;;;23.47;43.76;101889.25;4917810;28;45990;-47
2022/07/07 04:07:46;;;;;;;;;10.00;7.25;;;;;23.46;44.00;101894.63;4917581;28;45406;-47
2022/07/07 04:10:11;;;;;;;;;6.50;6.50;;;;;23.43;43.92;101890.34;4918363;28;45353;-51
2022/07/07 04:12:36;;;;;;;;;7.75;5.75;;;;;23.40;44.24;101895.81;4917858;28;45353;-54
2022/07/07 04:15:02;;;;;;;;;5.75;5.00;;;;;23.39;43.98;101894.09;4917619;28;45915;-54
2022/07/07 04:17:28;;;;;;;;;6.25;4.25;;;;;23.36;44.31;101894.25;4918117;28;45282;-52
2022/07/07 04:19:53;;;;;;;;;2.00;2.00;;;;;23.35;44.28;101897.81;4920526;28;45322;-51
2022/07/07 04:22:19;;;;;;;;;2.75;2.75;;;;;23.34;44.35;101893.47;4921337;28;45321;-55
2022/07/07 04:24:44;;;;;;;;;6.00;2.00;;;;;23.32;44.63;101895.31;4920745;28;46076;-50
2022/07/07 04:27:10;;;;;;;;;4.00;2.50;;;;;23.30;44.51;101899.84;4921195;28;45377;-52
2022/07/07 04:29:35;;;;;;;;;3.00;3.00;;;;;23.28;44.68;101896.41;4920896;28;45297;-52
2022/07/07 04:32:01;;;;;;;;;3.00;3.00;;;;;23.26;44.44;101896.47;4921196;28;45368;-51
2022/07/07 04:34:26;;;;;;;;;2.00;2.00;;;;;23.23;44.88;101888.72;4920517;28;47963;-50
2022/07/07 04:36:52;;;;;;;;;1.00;1.00;;;;;23.25;44.70;101901.84;4920932;28;45241;-49
2022/07/07 04:39:17;;;;;;;;;3.25;3.25;;;;;23.23;44.80;101906.38;4920823;28;45300;-48
2022/07/07 04:41:42;;;;;;;;;3.00;3.00;;;;;23.21;44.60;101900.28;4921076;28;45336;-48
2022/07/07 04:44:08;;;;;;;;;4.50;3.00;;;;;23.20;44.69;101910.03;4920653;28;46228;-48
2022/07/07 04:46:33;;;;;;;;;3.50;3.50;;;;;23.20;45.20;101915.31;4920420;28;45171;-47
2022/07/07 04:48:59;;;;;;;;;4.25;2.00;;;;;23.17;45.09;101905.72;4920821;28;45347;-45
2022/07/07 04:51:24;;;;;;;;;3.00;3.00;;;;;23.16;44.84;101914.59;4920969;28;45594;-50
2022/07/07 04:53:50;;;;;;;;;5.00;5.00;;;;;23.16;44.89;101919.88;4920757;28;45558;-53
2022/07/07 04:56:15;;;;;;;;;3.75;2.00;;;;;23.14;45.15;101927.03;4920662;28;45339;-47
2022/07/07 04:58:41;;;;;;;;;2.00;2.00;;;;;23.14;45.24;101924.38;4920611;28;45391;-50
2022/07/07 05:01:07;;;;;;;;;3.00;3.00;;;;;23.14;45.04;101931.47;4920878;28;45536;-48
2022/07/07 05:03:33;;;;;;;;;2.00;2.00;;;;;23.14;45.48;101931.47;4920066;28;46004;-49
2022/07/07 05:05:58;;;;;;;;;3.50;3.00;;;;;23.13;45.24;101930.59;4920366;28;45517;-47
2022/07/07 05:08:24;;;;;;;;;3.50;2.50;;;;;23.12;45.30;101934.16;4920503;28;45497;-47
2022/07/07 05:10:49;;;;;;;;;3.50;3.00;;;;;23.12;45.38;101936.81;4920643;28;45475;-45
2022/07/07 05:13:14;;;;;;;;;4.00;4.00;;;;;23.12;45.56;101939.47;4920636;28;45414;-51
2022/07/07 05:15:40;;;;;;;;;3.50;2.00;;;;;23.11;45.57;101943.03;4919994;28;45193;-48
2022/07/07 05:18:05;;;;;;;;;3.25;3.25;;;;;23.10;45.76;101946.59;4920480;28;45358;-48
2022/07/07 05:20:30;;;;;;;;;3.00;3.00;;;;;23.10;45.70;101951.91;4902930;28;45604;-46
2022/07/07 05:22:56;;;;;;;;;5.75;4.00;;;;;23.10;45.62;101941.31;4919446;28;46549;-49
2022/07/07 05:25:21;;;;;;;;;3.25;3.25;;;;;23.09;45.74;101938.75;4920215;28;45249;-49
2022/07/07 05:27:48;;;;;;;;;6.00;3.25;;;;;23.09;46.09;101934.34;4919913;28;45406;-49
2022/07/07 05:30:13;;;;;;;;;4.00;4.00;;;;;23.08;45.75;101937.91;4919438;28;45238;-50
2022/07/07 05:32:39;;;;;;;;;3.00;3.00;;;;;23.08;45.96;101937.03;4919021;28;46156;-56
2022/07/07 05:35:05;;;;;;;;;4.00;2.25;;;;;23.08;46.00;101943.19;4919982;28;45189;-53
2022/07/07 05:37:30;;;;;;;;;4.25;3.00;;;;;23.08;46.19;101948.50;4919742;28;45434;-48
2022/07/07 05:39:56;;;;;;;;;4.75;3.00;;;;;23.09;46.16;101949.34;4920161;28;45315;-50
2022/07/07 05:42:21;;;;;;;;;3.25;2.75;;;;;23.08;46.39;101945.84;4919924;28;46243;-50
2022/07/07 05:44:46;;;;;;;;;2.75;2.75;;;;;23.09;46.30;101936.13;4919717;28;45328;-50
2022/07/07 05:47:12;;;;;;;;;3.50;3.25;;;;;23.09;46.23;101950.22;4920301;28;45435;-48
2022/07/07 05:49:37;;;;;;;;;4.50;4.00;;;;;23.09;46.37;101944.03;4919829;28;45372;-50
2022/07/07 05:52:03;;;;;;;;;4.75;3.00;;;;;23.08;46.07;101940.56;4919755;28;46421;-52
2022/07/07 05:54:28;;;;;;;;;3.00;3.00;;;;;23.09;46.43;101950.22;4919597;28;45321;-50
2022/07/07 05:56:54;;;;;;;;;2.00;2.00;;;;;23.11;46.08;101948.31;4919457;28;52599;-49
2022/07/07 05:59:19;;;;;;;;;6.00;4.00;;;;;23.11;46.47;101952.75;4918457;28;45555;-47
2022/07/07 06:01:45;;;;;;;;;3.00;3.00;;;;;23.12;46.35;101954.47;4919729;28;46231;-47
2022/07/07 06:04:10;;;;;;;;;4.00;4.00;;;;;23.11;46.44;101950.97;4902362;28;46363;-44
2022/07/07 06:06:35;;;;;;;;;5.00;4.00;;;;;23.11;46.57;101953.59;4919214;28;45589;-47
2022/07/07 06:09:02;;;;;;;;;3.50;2.50;;;;;23.11;46.57;101966.00;4919792;28;45301;-52
2022/07/07 06:11:27;;;;;;;;;3.00;3.00;;;;;23.10;46.73;101965.13;4919190;28;46363;-45
2022/07/07 06:13:53;;;;;;;;;4.00;4.00;;;;;23.11;46.28;101972.13;4919306;28;45229;-46
2022/07/07 06:16:38;;;;;;;;;4.75;3.75;;;;;23.10;46.36;101962.47;4919592;28;45308;-46
2022/07/07 06:19:03;;;;;;;;;5.75;4.00;;;;;23.09;46.77;101970.50;4919517;28;45555;-48
2022/07/07 06:21:28;;;;;;;;;5.00;4.00;;;;;23.07;46.84;101980.28;4918933;28;45309;-49
2022/07/07 06:23:54;;;;;;;;;3.00;3.00;;;;;23.05;46.92;101984.78;4918708;28;61783;-49
2022/07/07 06:26:19;;;;;;;;;3.25;3.25;;;;;22.99;46.96;101985.94;4919285;28;45471;-50
2022/07/07 06:28:44;;;;;;;;;5.00;4.00;;;;;22.95;47.21;102001.09;4919164;28;45395;-47
2022/07/07 06:31:10;;;;;;;;;4.00;3.50;;;;;22.91;46.78;101994.25;4919154;28;46358;-51
2022/07/07 06:33:35;;;;;;;;;4.25;4.25;;;;;22.89;47.22;101990.81;4918691;28;45543;-46
2022/07/07 06:36:01;;;;;;;;;4.75;4.00;;;;;22.91;47.26;102002.19;4919107;28;45402;-44
2022/07/07 06:38:26;;;;;;;;;5.00;3.00;;;;;22.93;47.24;101996.81;4918726;28;45552;-45
2022/07/07 06:40:51;;;;;;;;;3.00;3.00;;;;;22.96;47.20;101997.50;4918399;28;46191;-53
2022/07/07 06:43:16;;;;;;;;;4.25;2.25;;;;;22.99;47.21;102001.78;4919391;28;45409;-51
2022/07/07 06:45:42;;;;;;;;;8.00;4.00;;;;;23.02;47.38;102006.94;4918877;28;45411;-46
2022/07/07 06:48:07;;;;;;;;;4.00;2.75;;;;;23.03;47.01;102003.38;4901993;28;45478;-43
2022/07/07 06:50:32;;;;;;;;;5.00;4.00;;;;;23.06;47.31;101997.06;4918432;28;46219;-50
2022/07/07 06:52:58;;;;;;;;;3.00;3.00;;;;;23.07;47.05;102004.06;4918734;28;45459;-49
2022/07/07 06:55:23;;;;;;;;;5.00;4.00;;;;;23.07;47.54;102010.25;4918229;28;45516;-48
2022/07/07 06:57:48;;;;;;;;;6.75;4.00;;;;;23.07;47.31;102004.94;4919021;28;45330;-50
2022/07/07 07:00:14;;;;;;;;;4.00;4.00;;;;;23.09;47.35;102008.38;4919035;28;45367;-46
2022/07/07 07:02:43;;;;;;;;;2.00;2.00;;;;;23.10;47.37;102001.28;4918597;28;45554;-48
2022/07/07 07:05:08;;;;;;;;;4.00;3.00;;;;;23.10;47.08;102010.06;4918820;28;45351;-47
2022/07/07 07:07:34;;;;;;;;;5.00;3.00;;;;;23.11;47.04;102006.50;4918617;28;45574;-48
2022/07/07 07:09:59;;;;;;;;;3.75;3.25;;;;;23.13;46.75;102006.44;4918396;28;49789;-48
2022/07/07 07:12:24;;;;;;;;;2.75;2.75;;;;;23.12;46.99;102002.91;4918501;28;45225;-48
2022/07/07 07:14:50;;;;;;;;;2.25;2.25;;;;;23.14;46.98;102011.66;4918767;28;45271;-47
2022/07/07 07:17:15;;;;;;;;;5.50;3.00;;;;;23.15;47.16;102016.00;4901937;28;45525;-45
2022/07/07 07:19:40;;;;;;;;;3.50;2.00;;;;;23.15;47.24;102018.66;4918091;28;46207;-46
2022/07/07 07:22:06;;;;;;;;;4.00;3.00;;;;;23.16;47.03;102025.66;4918490;28;45481;-45
2022/07/07 07:24:31;;;;;;;;;3.75;2.50;;;;;23.16;47.24;102024.78;4918436;28;45255;-48
2022/07/07 07:26:56;;;;;;;;;3.25;3.00;;;;;23.19;47.15;102029.09;4918460;28;45419;-49
2022/07/07 07:29:22;;;;;;;;;3.00;3.00;;;;;23.20;47.30;102038.78;4918054;28;46009;-49
2022/07/07 07:31:47;;;;;;;;;3.00;2.75;;;;;23.20;47.22;102033.50;4918249;28;45457;-53
2022/07/07 07:34:13;;;;;;;;;5.00;3.50;;;;;23.22;47.16;102039.53;4918402;28;45507;-52
2022/07/07 07:36:38;;;;;;;;;2.00;2.00;;;;;23.21;47.23;102037.81;4918443;28;45287;-55
2022/07/07 07:39:03;;;;;;;;;2.00;2.00;;;;;23.24;47.04;102050.91;4918123;28;45426;-48
2022/07/07 07:41:29;;;;;;;;;3.25;3.00;;;;;23.25;46.85;102047.34;4917948;28;45332;-54
2022/07/07 07:43:54;;;;;;;;;3.00;3.00;;;;;23.26;46.86;102056.97;4918493;28;45283;-49
2022/07/07 07:46:19;;;;;;;;;3.00;3.00;;;;;23.25;47.20;102049.97;4918783;28;45256;-53
2022/07/07 07:48:45;;;;;;;;;3.00;3.00;;;;;23.28;47.12;102060.41;4917830;28;47439;-54
2022/07/07 07:51:10;;;;;;;;;3.00;3.00;;;;;23.29;46.93;102049.75;4918058;28;45233;-49
2022/07/07 07:53:35;;;;;;;;;5.50;3.75;;;;;23.30;47.01;102067.34;4920354;28;45730;-48
2022/07/07 07:56:01;;;;;;;;;2.75;2.75;;;;;23.32;46.94;102056.69;4921661;28;45229;-49
2022/07/07 07:58:27;;;;;;;;;2.25;2.25;;;;;23.34;46.69;102059.28;4921058;28;46010;-47
2022/07/07 08:00:52;;;;;;;;;5.50;2.25;;;;;23.35;47.02;102068.91;4920561;28;45317;-48
2022/07/07 08:03:17;;;;;;;;;2.00;2.00;;;;;23.36;46.99;102068.00;4921848;28;45276;-45
2022/07/07 08:05:42;;;;;;;;;2.00;2.00;;;;;23.36;46.98;102055.59;4921266;28;45226;-48
2022/07/07 08:08:08;;;;;;;;;3.75;2.00;;;;;23.38;46.93;102047.59;4921146;28;45268;-47
2022/07/07 08:10:33;;;;;;;;;2.00;2.00;;;;;23.38;46.87;102053.75;4920903;28;45185;-46
2022/07/07 08:12:59;;;;;;;;;2.50;2.50;;;;;23.40;46.90;102051.91;4921551;28;45324;-45
2022/07/07 08:15:24;;;;;;;;;3.25;2.25;;;;;23.42;46.79;102051.81;4921518;28;45538;-49
2022/07/07 08:17:51;;;;;;;;;3.00;2.75;;;;;23.43;46.88;102056.19;4921541;28;46892;-44
2022/07/07 08:20:17;;;;;;;;;4.75;3.00;;;;;23.45;46.82;102052.50;4921079;28;45347;-49
2022/07/07 08:22:43;;;;;;;;;5.50;2.50;;;;;23.45;46.63;102052.50;4921041;28;45448;-51
2022/07/07 08:25:08;;;;;;;;;2.00;2.00;;;;;23.46;46.82;102048.94;4921387;28;45455;-46
2022/07/07 08:27:34;;;;;;;;;5.00;4.00;;;;;23.48;46.58;102046.25;4920522;28;46263;-47
2022/07/07 08:30:00;;;;;;;;;3.00;2.00;;;;;23.49;46.66;102041.78;4921145;28;45379;-47
2022/07/07 08:32:25;;;;;;;;;2.00;2.00;;;;;23.50;46.65;102046.16;4920907;28;45312;-53
2022/07/07 08:34:51;;;;;;;;;4.00;3.00;;;;;23.51;46.46;102043.41;4921490;28;45505;-48
2022/07/07 08:37:16;;;;;;;;;2.50;2.50;;;;;23.52;46.37;102041.66;4903761;28;47184;-51
2022/07/07 08:39:42;;;;;;;;;2.00;2.00;;;;;23.53;46.63;102038.91;4920594;28;45455;-52
2022/07/07 08:42:08;;;;;;;;;3.75;2.75;;;;;23.53;46.70;102036.28;4921130;28;45300;-54
2022/07/07 08:44:33;;;;;;;;;3.00;2.00;;;;;23.54;46.50;102029.16;4920867;28;45400;-51
2022/07/07 08:46:59;;;;;;;;;4.75;3.00;;;;;23.55;46.37;102036.19;4903628;28;46316;-51
2022/07/07 08:49:26;;;;;;;;;3.00;3.00;;;;;23.56;46.33;102041.41;4920639;28;45501;-44
2022/07/07 08:51:53;;;;;;;;;5.50;2.25;;;;;23.57;46.38;102040.50;4921309;28;45275;-55
2022/07/07 08:54:18;;;;;;;;;1.75;1.75;;;;;23.58;46.16;102047.50;4920954;28;45633;-53
2022/07/07 08:56:43;;;;;;;;;3.00;3.00;;;;;23.61;46.51;102049.13;4920388;28;45567;-54
2022/07/07 08:59:11;;;;;;;;;2.75;2.00;;;;;23.63;46.38;102045.47;4920818;28;45466;-53
2022/07/07 09:01:37;;;;;;;;;4.00;2.00;;;;;23.65;45.85;102050.66;4920474;28;45238;-46
2022/07/07 09:04:03;;;;;;;;;4.00;2.00;;;;;23.66;45.87;102049.75;4920712;28;45224;-48
2022/07/07 09:06:29;;;;;;;;;2.00;2.00;;;;;23.67;45.88;102048.81;4920292;28;46602;-49
2022/07/07 09:08:55;;;;;;;;;4.00;1.50;;;;;23.68;45.79;102053.16;4920510;28;45418;-45
2022/07/07 09:11:32;;;;;;;;;3.25;3.25;;;;;23.69;45.47;102054.03;4919716;28;46030;-47
2022/07/07 09:14:08;;;;;;;;;1.00;1.00;;;;;23.69;46.05;102049.59;4920547;28;45301;-49
2022/07/07 09:16:35;;;;;;;;;2.50;2.00;;;;;23.71;45.59;102053.03;4920071;28;48210;-48
2022/07/07 09:19:01;;;;;;;;;2.00;2.00;;;;;23.72;45.70;102043.28;4920372;28;45280;-52
2022/07/07 09:21:28;;;;;;;;;3.00;2.00;;;;;23.72;45.62;102043.28;4919857;28;46591;-49
2022/07/07 09:24:02;;;;;;;;;2.50;1.00;;;;;23.72;46.03;102048.56;4920874;28;45197;-51
2022/07/07 09:26:45;;;;;;;;;3.25;1.50;;;;;23.72;45.57;102052.09;4919973;28;46600;-46
2022/07/07 09:29:28;;;;;;;;;1.00;1.00;;;;;23.73;45.79;102051.16;4919907;28;45327;-45
2022/07/07 09:31:55;;;;;;;;;2.50;2.00;;;;;23.74;45.66;102055.53;4920364;28;45427;-50
2022/07/07 09:34:26;;;;;;;;;2.00;2.00;;;;;23.74;46.13;102059.94;4920738;28;45289;-45
2022/07/07 09:39:46;;;;;;;;;3.50;1.00;;;;;23.74;45.74;102065.25;4919720;28;45841;-48
2022/07/07 09:42:24;;;;;;;;;2.00;2.00;;;;;23.73;45.51;102072.34;4920025;28;45475;-48
2022/07/07 09:45:02;;;;;;;;;3.75;2.00;;;;;23.73;45.83;102075.00;4919981;28;45495;-45
2022/07/07 09:47:29;;;;;;;;;3.25;2.00;;;;;23.73;45.41;102077.63;4919694;28;46863;-46
2022/07/07 09:49:59;;;;;;;;;5.75;3.00;;;;;23.74;45.81;102079.34;4920184;28;45754;-47
2022/07/07 09:52:24;;;;;;;;;2.00;2.00;;;;;23.74;45.59;102082.00;4920459;28;45410;-44
2022/07/07 09:54:50;;;;;;;;;2.00;2.00;;;;;23.74;45.69;102087.28;4920363;28;45440;-46
2022/07/07 09:57:19;;;;;;;;;5.00;2.00;;;;;23.74;45.57;102095.25;4919688;28;45827;-44
2022/07/07 09:59:45;;;;;;;;;2.00;2.00;;;;;23.75;45.50;102102.25;4919526;28;45225;-47
2022/07/07 10:02:22;;;;;;;;;2.25;2.00;;;;;23.75;45.33;102107.53;4919774;28;45491;-47
2022/07/07 10:04:53;;;;;;;;;3.50;2.00;;;;;23.74;45.54;102115.53;4919780;28;45368;-51
2022/07/07 10:07:22;;;;;;;;;3.00;2.00;;;;;23.74;45.43;102112.91;4919597;28;45286;-52
2022/07/07 10:09:56;;;;;;;;;1.25;1.25;;;;;23.73;46.21;102120.00;4919268;28;45426;-48
2022/07/07 10:12:26;;;;;;;;;2.75;2.00;;;;;23.73;45.64;102122.63;4919981;28;45422;-50
2022/07/07 10:15:00;;;;;;;;;2.00;2.00;;;;;23.74;46.07;102128.78;4919779;28;45250;-49
2022/07/07 10:17:27;;;;;;;;;3.25;2.00;;;;;23.72;45.68;102134.16;4919181;28;46388;-48
2022/07/07 10:19:53;;;;;;;;;2.00;2.00;;;;;23.73;46.10;102138.53;4919713;28;45738;-49
2022/07/07 10:22:21;;;;;;;;;3.00;1.50;;;;;23.74;45.63;102136.72;4919595;28;45293;-52
2022/07/07 10:24:47;;;;;;;;;3.00;2.00;;;;;23.74;45.46;102147.31;4919309;28;45385;-47
2022/07/07 10:27:15;;;;;;;;;3.00;2.00;;;;;23.73;45.62;102142.94;4919243;28;46012;-45
2022/07/07 10:29:51;;;;;;;;;2.50;2.50;;;;;23.73;45.62;102146.47;4919028;28;45838;-50
2022/07/07 10:32:20;;;;;;;;;3.50;2.00;;;;;23.73;46.01;102149.09;4919451;28;45269;-49
2022/07/07 10:34:55;;;;;;;;;2.00;2.00;;;;;23.74;45.40;102156.13;4919269;28;45598;-55
2022/07/07 10:37:22;;;;;;;;;3.00;3.00;;;;;23.74;45.71;102161.41;4919473;28;47120;-47
2022/07/07 10:39:50;;;;;;;;;2.75;2.00;;;;;23.73;45.97;102159.69;4918787;28;45779;-49
2022/07/07 10:42:15;;;;;;;;;5.00;3.00;;;;;23.74;45.49;102165.84;4919252;28;45242;-50
2022/07/07 10:44:46;;;;;;;;;3.00;3.00;;;;;23.75;45.33;102164.91;4919070;28;45555;-46
2022/07/07 10:47:11;;;;;;;;;3.00;3.00;;;;;23.74;45.36;102166.72;4917658;28;45557;-46
2022/07/07 10:49:41;;;;;;;;;3.33;3.00;;;;;23.75;45.55;102167.56;4918752;28;45409;-50
2022/07/07 10:52:21;;;;;;;;;2.25;2.25;;;;;23.75;45.53;102167.56;4919210;28;45336;-50
2022/07/07 10:54:55;;;;;;;;;2.75;2.75;;;;;23.76;45.61;102170.13;4919039;28;45505;-51
2022/07/07 10:57:22;;;;;;;;;3.50;3.50;;;;;23.76;45.68;102170.13;4919235;28;47076;-51
2022/07/07 10:59:56;;;;;;;;;3.50;2.00;;;;;23.77;45.61;102174.47;4918519;28;45472;-48
2022/07/07 11:02:57;;;;;;;;;2.25;2.00;;;;;23.77;45.00;102173.63;4919259;28;45407;-45
2022/07/07 11:05:33;;;;;;;;;3.25;2.00;;;;;23.78;45.16;102170.91;4879442;29;45414;-49
2022/07/07 11:07:59;;;;;;;;;3.75;3.00;;;;;23.78;45.48;102175.34;4912865;28;46247;-49
2022/07/07 11:10:36;;;;;;;;;3.00;3.00;;;;;23.77;45.26;102178.94;4919036;28;45455;-44
2022/07/07 11:13:19;;;;;;;;;2.00;2.00;;;;;23.75;45.07;102181.66;4918933;28;45329;-46
2022/07/07 11:15:46;;;;;;;;;3.25;3.00;;;;;23.75;45.21;102189.59;4918855;28;46025;-47
2022/07/07 11:18:14;;;;;;;;;2.50;2.25;;;;;23.75;45.22;102191.38;4918571;28;45395;-46
2022/07/07 11:21:00;;;;;;;;;3.00;3.00;;;;;23.76;45.54;102193.09;4917818;28;45801;-50
2022/07/07 11:23:41;;;;;;;;;3.50;3.25;;;;;23.75;45.43;102192.25;4918370;28;45371;-47
2022/07/07 11:26:06;;;;;;;;;5.00;2.75;;;;;23.75;44.88;102192.25;4918656;28;45475;-45